createdAt,value
2023-03-16T00:03:03.875Z,98877.09
2023-03-16T00:08:31.719Z,98892.97
2023-03-16T00:14:02.718Z,98886.84
2023-03-16T00:25:30.702Z,98889.84
2023-03-16T00:30:56.743Z,98882.97
2023-03-16T00:36:23.733Z,98893.72
2023-03-16T00:41:57.726Z,98893.84
2023-03-16T00:47:23.780Z,98895.69
2023-03-16T00:52:48.729Z,98888.75
2023-03-16T00:58:16.762Z,98897.66
2023-03-16T01:03:41.748Z,98895.22
2023-03-16T01:09:07.830Z,98894.50
2023-03-16T01:14:34.796Z,98898.06
2023-03-16T01:19:59.802Z,98899.91
2023-03-16T01:25:27.817Z,98896.53
2023-03-16T01:30:55.794Z,98893.94
2023-03-16T01:36:22.761Z,98893.09
2023-03-16T01:41:52.758Z,98897.50
2023-03-16T01:47:20.828Z,98887.09
2023-03-16T01:52:47.740Z,98880.28
2023-03-16T01:58:11.767Z,98875.03
2023-03-16T02:03:41.739Z,98873.63
2023-03-16T02:09:13.768Z,98872.59
2023-03-16T02:14:39.862Z,98870.06
2023-03-16T02:20:19.879Z,98873.69
2023-03-16T02:25:53.782Z,98882.25
2023-03-16T02:31:24.797Z,98877.84
2023-03-16T02:36:52.764Z,98875.66
2023-03-16T02:42:28.760Z,98878.03
2023-03-16T02:47:58.777Z,98874.41
2023-03-16T02:53:23.789Z,98884.88
2023-03-16T02:58:50.802Z,98884.97
2023-03-16T03:04:21.863Z,98883.25
2023-03-16T03:09:46.774Z,98875.19
2023-03-16T03:15:12.875Z,98880.69
2023-03-16T03:20:50.761Z,98888.22
2023-03-16T03:26:15.812Z,98893.22
2023-03-16T03:31:40.862Z,98892.53
2023-03-16T03:37:07.857Z,98882.41
2023-03-16T03:42:39.832Z,98879.72
2023-03-16T03:48:04.789Z,98878.00
2023-03-16T03:53:31.767Z,98867.66
2023-03-16T03:59:10.809Z,98871.34
2023-03-16T04:04:50.800Z,98874.81
2023-03-16T04:10:20.803Z,98873.91
2023-03-16T04:15:47.836Z,98867.00
2023-03-16T04:21:18.875Z,98874.91
2023-03-16T04:26:46.787Z,98881.19
2023-03-16T04:32:12.797Z,98875.31
2023-03-16T04:37:37.843Z,98882.50
2023-03-16T04:43:11.840Z,98878.28
2023-03-16T04:48:38.850Z,98879.25
2023-03-16T04:54:03.807Z,98878.47
2023-03-16T04:59:34.820Z,98870.75
2023-03-16T05:05:13.002Z,98857.97
2023-03-16T05:10:47.818Z,98859.84
2023-03-16T05:16:14.930Z,98860.13
2023-03-16T05:21:41.848Z,98862.88
2023-03-16T05:27:09.844Z,98861.16
2023-03-16T05:32:38.034Z,98862.16
2023-03-16T05:38:01.821Z,98870.72
2023-03-16T05:43:29.872Z,98884.78
2023-03-16T05:48:58.017Z,98880.34
2023-03-16T05:54:22.905Z,98888.44
2023-03-16T05:59:47.838Z,98889.31
2023-03-16T06:05:17.979Z,98896.22
2023-03-16T06:10:42.841Z,98901.19
2023-03-16T06:16:08.930Z,98910.50
2023-03-16T06:21:36.102Z,98911.22
2023-03-16T06:27:01.843Z,98907.50
2023-03-16T06:32:37.922Z,98902.84
2023-03-16T06:38:05.873Z,98901.88
2023-03-16T06:43:49.886Z,98914.00
2023-03-16T06:49:14.871Z,98907.41
2023-03-16T06:54:43.867Z,98900.03
2023-03-16T07:05:32.863Z,98903.56
2023-03-16T07:11:00.844Z,98894.09
2023-03-16T07:16:27.952Z,98890.63
2023-03-16T07:21:54.850Z,98895.81
2023-03-16T07:27:24.854Z,98896.97
2023-03-16T07:32:51.934Z,98891.25
2023-03-16T07:38:18.872Z,98901.41
2023-03-16T07:43:55.118Z,98897.34
2023-03-16T07:49:22.897Z,98894.75
2023-03-16T07:54:50.171Z,98886.97
2023-03-16T08:00:21.025Z,98887.63
2023-03-16T08:05:45.896Z,98896.28
2023-03-16T08:11:10.862Z,98897.84
2023-03-16T08:16:43.989Z,98888.97
2023-03-16T08:22:13.242Z,98892.28
2023-03-16T08:27:39.870Z,98879.25
2023-03-16T08:33:07.956Z,98897.50
2023-03-16T08:38:33.231Z,98897.19
2023-03-16T08:44:06.907Z,98896.06
2023-03-16T08:49:34.897Z,98894.94
2023-03-16T08:55:04.167Z,98896.31
2023-03-16T09:00:30.132Z,98893.13
2023-03-16T09:05:56.909Z,98894.91
2023-03-16T09:11:24.272Z,98886.88
2023-03-16T09:16:47.949Z,98879.66
2023-03-16T09:22:16.899Z,98879.53
2023-03-16T09:27:41.926Z,98877.41
2023-03-16T09:33:06.933Z,98879.63
2023-03-16T09:38:35.905Z,98876.94
2023-03-16T09:44:17.920Z,98874.88
2023-03-16T09:49:46.957Z,98869.03
2023-03-16T09:55:20.912Z,98869.28
2023-03-16T10:00:51.953Z,98861.72
2023-03-16T10:06:19.934Z,98853.16
2023-03-16T10:11:51.941Z,98858.13
2023-03-16T10:17:22.926Z,98849.66
2023-03-16T10:22:51.944Z,98839.66
2023-03-16T10:28:18.993Z,98826.97
2023-03-16T10:33:46.093Z,98842.63
2023-03-16T10:39:13.961Z,98827.25
2023-03-16T10:44:47.957Z,98830.94
2023-03-16T10:50:29.106Z,98828.63
2023-03-16T10:55:53.971Z,98832.28
2023-03-16T11:01:27.050Z,98823.09
2023-03-16T11:07:00.985Z,98817.53
2023-03-16T11:12:30.964Z,98811.56
2023-03-16T11:18:00.966Z,98807.81
2023-03-16T11:23:24.956Z,98805.22
2023-03-16T11:28:52.955Z,98789.06
2023-03-16T11:34:25.972Z,98780.78
2023-03-16T11:39:58.971Z,98780.75
2023-03-16T11:45:31.362Z,98766.38
2023-03-16T11:51:09.985Z,98758.34
2023-03-16T11:56:48.268Z,98747.09
2023-03-16T12:02:36.027Z,98751.09
2023-03-16T12:08:13.972Z,98745.81
2023-03-16T12:13:50.976Z,98732.63
2023-03-16T12:19:20.978Z,98732.44
2023-03-16T12:24:56.978Z,98721.72
2023-03-16T12:30:43.008Z,98711.25
2023-03-16T12:36:16.998Z,98707.84
2023-03-16T12:42:02.000Z,98701.34
2023-03-16T12:47:34.999Z,98695.22
2023-03-16T12:53:01.999Z,98672.38
2023-03-16T12:58:30.127Z,98678.13
2023-03-16T13:03:55.026Z,98674.19
2023-03-16T13:09:22.043Z,98665.75
2023-03-16T13:14:56.026Z,98663.50
2023-03-16T13:20:40.061Z,98669.56
2023-03-16T13:26:22.086Z,98667.41
2023-03-16T13:31:51.066Z,98663.97
2023-03-16T13:37:17.008Z,98668.75
2023-03-16T13:42:50.025Z,98661.16
2023-03-16T13:48:22.165Z,98645.66
2023-03-16T13:53:49.018Z,98662.50
2023-03-16T13:59:15.036Z,98648.19
2023-03-16T14:04:44.008Z,98638.50
2023-03-16T14:10:12.139Z,98636.28
2023-03-16T14:15:37.082Z,98613.88
2023-03-16T14:21:06.034Z,98616.88
2023-03-16T14:26:34.037Z,98603.53
2023-03-16T14:31:59.071Z,98587.94
2023-03-16T14:37:29.054Z,98584.59
2023-03-16T14:42:54.065Z,98569.91
2023-03-16T14:48:23.078Z,98579.03
2023-03-16T14:53:51.078Z,98569.13
2023-03-16T14:59:16.055Z,98581.41
2023-03-16T15:04:44.073Z,98567.16
2023-03-16T15:10:17.052Z,98561.31
2023-03-16T15:15:42.084Z,98569.44
2023-03-16T15:21:07.087Z,98565.09
2023-03-16T15:26:37.115Z,98561.34
2023-03-16T15:32:03.073Z,98542.50
2023-03-16T15:37:31.083Z,98546.56
2023-03-16T15:42:58.084Z,98545.25
2023-03-16T15:48:26.082Z,98546.50
2023-03-16T15:54:02.141Z,98542.91
2023-03-16T15:59:30.121Z,98538.72
2023-03-16T16:04:54.094Z,98541.22
2023-03-16T16:10:23.106Z,98522.44
2023-03-16T16:15:53.679Z,98532.34
2023-03-16T16:21:26.132Z,98524.44
2023-03-16T16:26:56.054Z,98507.25
2023-03-16T16:32:33.122Z,98494.28
2023-03-16T16:37:58.115Z,98528.59
2023-03-16T16:43:43.129Z,98522.25
2023-03-16T16:49:15.116Z,98514.03
2023-03-16T16:54:43.127Z,98513.03
2023-03-16T17:00:08.264Z,98485.94
2023-03-16T17:05:39.143Z,98493.97
2023-03-16T17:11:05.196Z,98497.72
2023-03-16T17:16:32.172Z,98510.53
2023-03-16T17:22:00.172Z,98508.63
2023-03-16T17:27:28.145Z,98504.88
2023-03-16T17:32:53.167Z,98497.16
2023-03-16T17:38:28.296Z,98488.50
2023-03-16T17:43:54.155Z,98490.00
2023-03-16T17:49:24.176Z,98491.78
2023-03-16T17:54:52.163Z,98493.28
2023-03-16T18:00:21.130Z,98492.06
2023-03-16T18:05:47.127Z,98490.44
2023-03-16T18:11:16.142Z,98477.84
2023-03-16T18:16:41.296Z,98473.28
2023-03-16T18:22:06.237Z,98475.00
2023-03-16T18:27:34.134Z,98470.53
2023-03-16T18:32:58.342Z,98471.78
2023-03-16T18:38:28.172Z,98481.13
2023-03-16T18:44:02.207Z,98490.59
2023-03-16T18:49:30.334Z,98478.13
2023-03-16T18:54:55.161Z,98473.53
2023-03-16T19:00:28.161Z,98471.97
2023-03-16T19:05:52.189Z,98472.72
2023-03-16T19:11:20.247Z,98468.94
2023-03-16T19:16:47.192Z,98470.78
2023-03-16T19:22:18.221Z,98462.88
2023-03-16T19:27:50.314Z,98470.13
2023-03-16T19:33:27.204Z,98461.03
2023-03-16T19:38:53.197Z,98470.38
2023-03-16T19:44:32.195Z,98469.72
2023-03-16T19:50:01.175Z,98464.63
2023-03-16T19:55:30.445Z,98463.28
2023-03-16T20:00:55.263Z,98456.72
2023-03-16T20:06:25.229Z,98449.19
2023-03-16T20:11:50.183Z,98446.97
2023-03-16T20:17:15.252Z,98444.56
2023-03-16T20:22:43.288Z,98438.00
2023-03-16T20:28:12.284Z,98448.88
2023-03-16T20:33:38.267Z,98453.56
2023-03-16T20:39:05.365Z,98444.84
2023-03-16T20:44:37.207Z,98438.81
2023-03-16T20:50:04.209Z,98435.28
2023-03-16T20:55:33.243Z,98432.53
2023-03-16T21:00:59.214Z,98431.66
2023-03-16T21:06:35.362Z,98416.56
2023-03-16T21:12:03.241Z,98426.47
2023-03-16T21:17:31.307Z,98422.13
2023-03-16T21:22:56.349Z,98417.19
2023-03-16T21:28:26.309Z,98404.09
2023-03-16T21:33:53.244Z,98403.16
2023-03-16T21:39:29.240Z,98389.59
2023-03-16T21:45:04.358Z,98387.78
2023-03-16T21:50:31.537Z,98383.41
2023-03-16T21:55:56.328Z,98391.41
2023-03-16T22:01:32.279Z,98395.53
2023-03-16T22:06:58.329Z,98380.66
2023-03-16T22:12:23.239Z,98370.00
2023-03-16T22:17:51.251Z,98363.78
2023-03-16T22:23:19.312Z,98367.94
2023-03-16T22:28:45.262Z,98376.75
2023-03-16T22:34:14.244Z,98372.53
2023-03-16T22:39:39.440Z,98374.00
2023-03-16T22:45:12.293Z,98358.00
2023-03-16T22:50:44.253Z,98342.50
2023-03-16T22:56:11.288Z,98343.09
2023-03-16T23:01:41.302Z,98326.50
2023-03-16T23:07:10.347Z,98318.16
2023-03-16T23:12:35.316Z,98315.41
2023-03-16T23:17:59.275Z,98303.13
2023-03-16T23:23:27.312Z,98308.22
2023-03-16T23:28:51.284Z,98300.84
2023-03-16T23:34:20.381Z,98294.09
2023-03-16T23:39:48.303Z,98292.63
2023-03-16T23:45:25.294Z,98299.13
2023-03-16T23:50:51.376Z,98292.00
2023-03-16T23:56:19.347Z,98290.91
